Time;durP1;ratioP1;P1;durP2;ratioP2;P2;SDS_P1;SDS_P2;PMS_P1;PMS_P2;Temp;Humidity;BMP_temperature;BMP_pressure;BME280_temperature;BME280_humidity;BME280_pressure;Samples;Min_cycle;Max_cycle;Signal;HPM_P1;HPM_P2
2021/05/26 00:01:22;;;;;;;5.92;1.90;;;;;;;7.34;76.33;98341.98;1786744;80;21477;-76
2021/05/26 00:03:48;;;;;;;6.40;2.72;;;;;;;7.17;78.52;98340.69;1756255;80;21265;-76
2021/05/26 00:06:14;;;;;;;5.65;3.70;;;;;;;7.14;76.51;98339.85;1756237;80;21027;-76
2021/05/26 00:08:40;;;;;;;8.08;3.87;;;;;;;7.15;76.25;98337.97;1786731;79;20896;-76
2021/05/26 00:11:10;;;;;;;10.40;4.10;;;;;;;7.12;78.57;98337.95;1786894;80;20868;-76
2021/05/26 00:13:36;;;;;;;6.97;2.50;;;;;;;7.00;79.38;98344.77;1756900;80;20856;-76
2021/05/26 00:16:03;;;;;;;3.12;1.80;;;;;;;6.80;80.38;98337.77;1786946;80;21083;-76
2021/05/26 00:18:30;;;;;;;6.42;2.12;;;;;;;6.76;79.35;98348.23;1787044;79;21003;-76
2021/05/26 00:20:56;;;;;;;3.35;1.90;;;;;;;6.72;77.74;98345.73;1786679;80;21431;-76
2021/05/26 00:23:22;;;;;;;3.27;1.62;;;;;;;6.71;78.23;98344.10;1786798;79;20955;-76
2021/05/26 00:25:49;;;;;;;7.47;2.72;;;;;;;6.66;80.04;98349.40;1786741;80;20923;-76
2021/05/26 00:28:15;;;;;;;9.10;4.53;;;;;;;6.70;78.49;98351.90;1756090;80;21128;-76
2021/05/26 00:30:51;;;;;;;9.25;4.83;;;;;;;6.75;78.48;98347.95;1786620;80;21047;-76
2021/05/26 00:33:16;;;;;;;7.47;4.55;;;;;;;6.69;78.47;98352.97;1787219;78;20940;-76
2021/05/26 00:35:42;;;;;;;9.63;5.70;;;;;;;6.63;79.02;98345.05;1790114;80;21038;-76
2021/05/26 00:38:09;;;;;;;7.33;4.40;;;;;;;6.47;78.85;98348.03;1790085;78;21403;-76
2021/05/26 00:40:35;;;;;;;10.10;5.12;;;;;;;6.43;79.42;98353.09;1790158;80;21095;-75
2021/05/26 00:43:01;;;;;;;9.05;4.42;;;;;;;6.35;80.43;98357.55;1790043;78;21458;-75
2021/05/26 00:45:27;;;;;;;7.25;3.47;;;;;;;6.36;79.84;98358.36;1790108;80;20836;-75
2021/05/26 00:47:53;;;;;;;11.95;4.95;;;;;;;6.40;79.72;98352.75;1790170;78;20876;-76
2021/05/26 00:50:26;;;;;;;8.08;3.80;;;;;;;6.24;80.75;98354.41;1790101;80;21005;-76
2021/05/26 00:52:53;;;;;;;9.93;5.35;;;;;;;6.28;79.91;98360.10;1790212;78;21199;-76
2021/05/26 00:55:20;;;;;;;12.60;5.70;;;;;;;6.27;79.66;98361.98;1790045;80;21035;-76
2021/05/26 00:57:48;;;;;;;12.53;3.85;;;;;;;6.27;79.64;98363.86;1790104;78;20904;-76
2021/05/26 01:00:19;;;;;;;9.70;4.15;;;;;;;6.33;79.89;98366.39;1763821;80;20979;-76
2021/05/26 01:02:52;;;;;;;11.83;5.37;;;;;;;6.29;79.87;98364.42;1790094;78;20947;-76
2021/05/26 01:05:20;;;;;;;14.50;5.35;;;;;;;6.19;79.77;98366.41;1790057;80;21020;-76
2021/05/26 01:07:46;;;;;;;11.47;5.60;;;;;;;6.12;79.92;98366.56;1790175;78;20935;-76
2021/05/26 01:10:15;;;;;;;12.00;5.17;;;;;;;6.04;80.08;98362.10;1790166;80;20916;-76
2021/05/26 01:12:41;;;;;;;8.38;5.05;;;;;;;5.97;80.29;98373.53;1764638;80;21034;-76
2021/05/26 01:15:09;;;;;;;13.65;5.28;;;;;;;5.99;80.56;98372.79;1790074;80;20955;-76
2021/05/26 01:17:35;;;;;;;8.60;5.33;;;;;;;6.01;80.47;98372.02;1789937;78;20975;-76
2021/05/26 01:20:05;;;;;;;11.57;4.97;;;;;;;5.97;80.57;98385.64;1790129;80;21122;-76
2021/05/26 01:22:30;;;;;;;;;;;;;;;5.91;80.52;98381.53;1792408;78;20966;-77
2021/05/26 01:24:56;;;;;;;12.25;5.50;;;;;;;5.88;81.01;98377.92;1790120;80;20197;-77
2021/05/26 01:27:23;;;;;;;13.85;9.13;;;;;;;5.82;81.24;98372.19;1790018;78;20859;-77
2021/05/26 01:29:49;;;;;;;11.68;5.47;;;;;;;5.79;81.51;98373.98;1790251;80;21118;-77
2021/05/26 01:32:15;;;;;;;15.75;6.78;;;;;;;5.75;81.30;98359.41;1789894;78;20931;-77
2021/05/26 01:34:41;;;;;;;10.72;6.03;;;;;;;5.70;81.58;98369.23;1787463;80;20899;-76
2021/05/26 01:37:07;;;;;;;10.63;6.42;;;;;;;5.69;81.30;98366.27;1786651;78;21038;-77
2021/05/26 01:39:33;;;;;;;11.05;6.30;;;;;;;5.69;81.21;98360.88;1786848;80;21003;-77
2021/05/26 01:41:59;;;;;;;15.18;6.15;;;;;;;5.70;81.23;98364.67;1786803;79;21773;-76
2021/05/26 01:44:26;;;;;;;8.93;6.67;;;;;;;5.75;81.28;98363.44;1786634;80;20952;-77
2021/05/26 01:46:52;;;;;;;8.00;5.35;;;;;;;5.78;81.19;98361.60;1729763;79;21511;-76
2021/05/26 01:49:18;;;;;;;10.38;5.70;;;;;;;5.79;81.37;98363.23;1786638;80;20947;-77
2021/05/26 01:51:44;;;;;;;12.43;6.92;;;;;;;5.74;80.96;98365.03;1786751;80;20871;-77
2021/05/26 01:54:10;;;;;;;17.07;6.97;;;;;;;5.70;81.07;98360.64;1786713;79;21267;-77
2021/05/26 01:56:36;;;;;;;10.13;6.03;;;;;;;5.65;80.84;98367.28;1786650;80;21557;-76
2021/05/26 01:59:03;;;;;;;8.95;5.92;;;;;;;5.59;80.73;98372.27;1786552;79;20887;-77
2021/05/26 02:01:29;;;;;;;9.93;5.45;;;;;;;5.53;80.77;98376.70;1786595;80;21027;-76
2021/05/26 02:03:55;;;;;;;11.00;4.75;;;;;;;5.51;80.46;98376.14;1786759;79;20871;-77
2021/05/26 02:06:22;;;;;;;9.18;5.50;;;;;;;5.45;80.82;98383.80;1786680;80;21681;-77
2021/05/26 02:08:51;;;;;;;10.68;5.20;;;;;;;5.40;80.56;98385.59;1786519;79;20832;-77
2021/05/26 02:14:03;;;;;;;8.65;4.47;;;;;;;5.32;81.82;98388.11;1786757;79;21113;-76
2021/05/26 02:16:29;;;;;;;8.38;3.37;;;;;;;5.25;81.76;98386.89;1786638;80;21519;-77
2021/05/26 02:18:55;;;;;;;13.83;4.17;;;;;;;5.23;81.75;98386.31;1786703;79;21237;-77
2021/05/26 02:21:21;;;;;;;5.10;3.33;;;;;;;5.23;81.50;98390.88;1786569;80;21031;-77
2021/05/26 02:23:47;;;;;;;6.50;4.50;;;;;;;5.23;81.32;98384.97;1786778;79;20824;-77
2021/05/26 02:26:14;;;;;;;11.83;7.40;;;;;;;5.18;81.22;98387.53;1786740;80;20954;-77
2021/05/26 02:28:41;;;;;;;13.13;7.22;;;;;;;5.20;81.47;98388.64;1786641;79;20927;-77
2021/05/26 02:31:08;;;;;;;11.40;6.72;;;;;;;5.28;81.29;98386.94;1786575;80;21148;-77
2021/05/26 02:33:34;;;;;;;11.22;5.75;;;;;;;5.32;81.02;98389.45;1786961;78;21075;-77
2021/05/26 02:36:01;;;;;;;9.70;5.85;;;;;;;5.33;80.49;98387.05;1790235;80;20963;-77
2021/05/26 02:38:27;;;;;;;12.75;6.33;;;;;;;5.25;80.67;98376.14;1790085;78;20952;-77
2021/05/26 02:40:53;;;;;;;14.65;6.03;;;;;;;5.24;80.76;98366.45;1790075;80;21426;-77
2021/05/26 02:43:19;;;;;;;13.03;6.15;;;;;;;5.12;80.76;98379.06;1789966;78;21812;-77
2021/05/26 02:45:45;;;;;;;12.28;6.00;;;;;;;5.14;80.81;98390.42;1763473;80;20843;-77
2021/05/26 02:48:12;;;;;;;10.25;5.03;;;;;;;5.05;82.28;98384.59;1790539;78;20844;-77
2021/05/26 02:50:37;;;;;;;11.15;4.90;;;;;;;5.04;81.23;98398.23;1790240;80;20887;-77
2021/05/26 02:53:03;;;;;;;10.53;5.20;;;;;;;5.02;81.19;98389.06;1790370;78;20879;-77
2021/05/26 02:55:29;;;;;;;9.20;5.65;;;;;;;5.06;81.37;98386.75;1790151;80;21108;-77
2021/05/26 02:57:55;;;;;;;10.72;5.95;;;;;;;5.13;81.49;98383.42;1790241;78;20915;-76
2021/05/26 03:00:23;;;;;;;8.95;4.87;;;;;;;5.13;81.49;98383.42;1790243;80;21415;-77
2021/05/26 03:02:49;;;;;;;10.10;5.15;;;;;;;5.14;81.28;98391.77;1790086;78;21078;-77
2021/05/26 03:05:16;;;;;;;13.58;7.30;;;;;;;5.13;81.00;98397.34;1790586;80;20875;-77
2021/05/26 03:07:42;;;;;;;12.80;6.30;;;;;;;5.03;81.06;98398.76;1790201;78;21454;-77
2021/05/26 03:10:10;;;;;;;7.30;4.53;;;;;;;4.85;81.77;98404.25;1790142;80;20927;-76
2021/05/26 03:12:36;;;;;;;9.45;6.10;;;;;;;4.72;83.09;98409.34;1764075;80;20912;-77
2021/05/26 03:15:06;;;;;;;11.95;5.55;;;;;;;4.69;82.11;98417.84;1790128;80;20923;-76
2021/05/26 03:17:32;;;;;;;9.83;6.50;;;;;;;4.64;81.69;98412.36;1764067;80;21003;-76
2021/05/26 03:19:58;;;;;;;9.88;5.40;;;;;;;4.58;81.38;98410.59;1790318;80;21219;-77
2021/05/26 03:22:24;;;;;;;11.12;6.33;;;;;;;4.57;81.30;98415.67;1790193;78;20894;-77
2021/05/26 03:24:50;;;;;;;8.23;5.55;;;;;;;4.50;82.71;98418.46;1763762;80;21011;-76
2021/05/26 03:27:16;;;;;;;9.00;3.55;;;;;;;4.49;83.94;98416.02;1790387;78;20915;-77
2021/05/26 03:29:42;;;;;;;7.35;4.12;;;;;;;4.37;84.21;98419.20;1790154;80;20959;-77
2021/05/26 03:32:08;;;;;;;8.15;3.20;;;;;;;4.41;83.96;98418.50;1763619;78;21064;-77
2021/05/26 03:34:35;;;;;;;5.75;2.92;;;;;;;4.56;82.97;98423.44;1788544;80;20812;-77
2021/05/26 03:37:01;;;;;;;7.30;2.92;;;;;;;4.63;83.56;98428.18;1786784;79;20982;-77
2021/05/26 03:39:27;;;;;;;8.38;3.20;;;;;;;4.87;82.93;98430.37;1786869;80;21014;-76
2021/05/26 03:41:53;;;;;;;7.12;2.77;;;;;;;5.01;82.39;98426.91;1786912;79;21031;-76
2021/05/26 03:44:19;;;;;;;7.12;2.98;;;;;;;5.13;82.69;98431.77;1786786;80;21557;-76
2021/05/26 03:46:45;;;;;;;11.50;3.30;;;;;;;5.23;83.32;98421.25;1786790;80;20951;-76
2021/05/26 03:49:11;;;;;;;5.95;2.50;;;;;;;5.40;83.19;98424.55;1787104;79;21017;-77
2021/05/26 03:51:37;;;;;;;8.03;2.52;;;;;;;5.59;82.09;98424.16;1786931;80;20946;-76
2021/05/26 03:54:04;;;;;;;11.73;3.17;;;;;;;5.66;81.59;98420.00;1786765;78;20970;-76
2021/05/26 03:56:30;;;;;;;14.80;6.72;;;;;;;5.79;81.61;98422.39;1786711;80;21514;-77
2021/05/26 03:58:58;;;;;;;11.68;4.33;;;;;;;5.93;81.73;98421.63;1786765;79;21379;-77
2021/05/26 04:01:24;;;;;;;7.28;4.05;;;;;;;6.14;81.34;98429.02;1786796;80;20923;-75
2021/05/26 04:03:52;;;;;;;6.72;3.02;;;;;;;6.25;80.85;98420.63;1786795;79;21472;-75
2021/05/26 04:06:19;;;;;;;6.70;3.65;;;;;;;6.33;80.26;98428.30;1786937;80;20928;-76
2021/05/26 04:08:44;;;;;;;9.03;3.05;;;;;;;6.41;79.95;98427.91;1786664;79;21850;-76
2021/05/26 04:11:10;;;;;;;7.20;3.00;;;;;;;6.50;79.70;98422.94;1786868;80;20876;-76
2021/05/26 04:13:36;;;;;;;3.15;1.90;;;;;;;6.52;79.46;98421.34;1787237;79;20952;-76
2021/05/26 04:16:03;;;;;;;5.08;3.15;;;;;;;6.61;79.54;98428.78;1786779;80;20863;-76
2021/05/26 04:18:29;;;;;;;4.92;2.92;;;;;;;6.77;79.68;98434.70;1786844;79;20944;-76
2021/05/26 04:20:55;;;;;;;6.60;2.60;;;;;;;6.98;79.61;98437.17;1786709;80;21846;-76
2021/05/26 04:23:21;;;;;;;7.47;2.22;;;;;;;7.09;78.80;98438.13;1756179;80;20988;-76
2021/05/26 04:25:49;;;;;;;10.98;3.15;;;;;;;7.25;78.53;98436.48;1787048;80;20955;-76
2021/05/26 04:28:15;;;;;;;11.68;3.22;;;;;;;7.44;78.62;98443.78;1786691;79;20875;-76
2021/05/26 04:30:41;;;;;;;8.05;4.00;;;;;;;7.64;78.37;98446.20;1756062;80;21050;-76
2021/05/26 04:33:07;;;;;;;13.03;3.65;;;;;;;7.72;77.54;98440.91;1786856;79;21262;-76
2021/05/26 04:35:33;;;;;;;5.65;2.72;;;;;;;7.89;77.84;98432.21;1789104;80;21487;-76
2021/05/26 04:37:59;;;;;;;9.20;3.65;;;;;;;7.99;77.01;98427.99;1790100;78;20947;-76
2021/05/26 04:40:26;;;;;;;9.55;4.28;;;;;;;8.10;76.61;98432.43;1790018;80;21011;-76
2021/05/26 04:42:52;;;;;;;6.83;3.95;;;;;;;8.17;76.17;98431.16;1764086;80;20991;-76
2021/05/26 04:45:18;;;;;;;13.83;4.30;;;;;;;8.31;75.92;98427.53;1790087;80;21874;-76
2021/05/26 04:47:46;;;;;;;10.93;4.72;;;;;;;8.44;76.15;98429.84;1789905;78;20943;-76
2021/05/26 04:50:12;;;;;;;16.07;4.85;;;;;;;8.62;76.06;98430.54;1790435;80;20967;-76
2021/05/26 04:52:38;;;;;;;20.05;5.33;;;;;;;8.71;75.70;98435.75;1790184;78;21360;-76
2021/05/26 04:55:05;;;;;;;17.27;4.22;;;;;;;8.91;75.72;98428.36;1790096;80;20919;-76
2021/05/26 04:57:31;;;;;;;8.50;3.87;;;;;;;9.13;75.93;98433.64;1789986;78;21514;-76
2021/05/26 04:59:57;;;;;;;6.05;3.62;;;;;;;9.41;73.42;98435.19;1790399;80;20848;-76
2021/05/26 05:02:23;;;;;;;11.22;5.17;;;;;;;9.41;73.42;98435.19;1790183;78;20959;-76
2021/05/26 05:04:49;;;;;;;9.30;4.50;;;;;;;9.43;72.34;98431.14;1790019;80;20915;-76
2021/05/26 05:07:15;;;;;;;10.98;3.80;;;;;;;9.44;71.78;98430.06;1790098;78;20859;-76
2021/05/26 05:09:41;;;;;;;4.45;2.62;;;;;;;9.57;70.89;98435.52;1790109;80;21040;-76
2021/05/26 05:12:07;;;;;;;8.15;3.75;;;;;;;9.60;70.29;98426.90;1763579;78;20895;-76
2021/05/26 05:14:33;;;;;;;8.13;3.58;;;;;;;9.67;70.93;98430.19;1790040;80;21054;-77
2021/05/26 05:16:59;;;;;;;16.57;5.95;;;;;;;9.83;69.88;98431.87;1763478;78;21034;-76
2021/05/26 05:19:25;;;;;;;11.05;2.92;;;;;;;9.92;69.96;98427.31;1763621;80;20946;-76
2021/05/26 05:21:51;;;;;;;10.20;2.70;;;;;;;10.05;69.77;98433.56;1790004;78;21041;-76
2021/05/26 05:24:18;;;;;;;5.72;2.00;;;;;;;10.23;70.58;98435.00;1790005;80;20910;-76
2021/05/26 05:26:44;;;;;;;7.15;1.80;;;;;;;10.49;69.68;98438.03;1789924;80;20971;-76
2021/05/26 05:29:09;;;;;;;14.25;4.80;;;;;;;10.74;68.24;98433.18;1790121;78;20856;-76
2021/05/26 05:31:35;;;;;;;7.85;2.83;;;;;;;10.96;67.53;98431.02;1763555;80;20970;-76
2021/05/26 05:34:02;;;;;;;7.20;3.33;;;;;;;11.17;66.45;98433.16;1790083;78;21827;-76
2021/05/26 05:36:28;;;;;;;7.42;2.92;;;;;;;11.39;67.55;98423.37;1786599;80;20908;-76
2021/05/26 05:38:53;;;;;;;7.50;2.98;;;;;;;11.55;67.62;98412.74;1786606;79;20923;-76
2021/05/26 05:41:19;;;;;;;6.08;2.67;;;;;;;11.76;66.86;98420.26;1786718;80;20859;-76
2021/05/26 05:43:46;;;;;;;13.65;4.05;;;;;;;11.94;66.76;98416.14;1787088;79;20864;-76
2021/05/26 05:46:12;;;;;;;8.30;2.60;;;;;;;12.09;66.30;98416.62;1786799;80;21074;-76
2021/05/26 05:48:38;;;;;;;9.48;2.92;;;;;;;12.25;64.62;98418.16;1786968;79;20916;-76
2021/05/26 05:51:04;;;;;;;3.47;1.90;;;;;;;12.45;65.14;98415.85;1786734;80;20962;-76
2021/05/26 05:53:30;;;;;;;7.65;2.58;;;;;;;12.62;65.22;98412.20;1786688;79;21032;-76
2021/05/26 05:55:58;;;;;;;5.05;2.55;;;;;;;12.84;62.79;98408.23;1786714;80;20985;-76
2021/05/26 05:58:25;;;;;;;18.87;4.47;;;;;;;12.94;61.92;98399.44;1786586;79;21110;-76
2021/05/26 06:00:51;;;;;;;8.78;4.67;;;;;;;13.09;60.27;98397.13;1786561;80;21054;-76
2021/05/26 06:03:17;;;;;;;11.83;2.70;;;;;;;13.15;58.75;98402.77;1786582;79;20928;-76
2021/05/26 06:05:43;;;;;;;7.10;3.27;;;;;;;13.29;57.66;98404.86;1787121;80;20959;-77
2021/05/26 06:08:09;;;;;;;4.62;2.08;;;;;;;13.39;57.94;98399.30;1756116;80;20963;-76
2021/05/26 06:10:35;;;;;;;5.67;3.35;;;;;;;13.44;55.39;98392.45;1786836;80;20964;-75
2021/05/26 06:13:06;;;;;;;7.08;3.58;;;;;;;13.58;57.38;98393.36;1786532;79;20844;-75
2021/05/26 06:15:29;;;;;;;4.72;2.00;;;;;;;13.81;56.48;98395.27;1785876;80;20951;-76
2021/05/26 06:17:59;;;;;;;3.55;1.87;;;;;;;14.04;56.44;98394.98;1786801;79;20939;-76
2021/05/26 06:20:25;;;;;;;4.70;1.50;;;;;;;14.22;51.49;98390.65;1756043;80;21372;-76
2021/05/26 06:22:52;;;;;;;4.40;1.30;;;;;;;14.29;52.37;98388.38;1786692;79;21109;-76
2021/05/26 06:25:18;;;;;;;4.42;1.37;;;;;;;14.43;51.98;98390.34;1786513;80;21074;-76
2021/05/26 06:27:44;;;;;;;4.78;1.62;;;;;;;14.63;49.72;98384.06;1787158;79;20872;-76
2021/05/26 06:30:11;;;;;;;2.20;1.00;;;;;;;14.66;50.32;98378.56;1786921;80;20951;-75
2021/05/26 06:32:37;;;;;;;2.40;1.60;;;;;;;14.78;48.98;98378.90;1786610;79;21025;-75
2021/05/26 06:35:04;;;;;;;3.15;1.10;;;;;;;14.88;48.81;98372.48;1787662;80;21108;-77
2021/05/26 06:37:30;;;;;;;2.33;0.90;;;;;;;15.04;49.40;98368.39;1762352;80;21023;-77
2021/05/26 06:39:56;;;;;;;4.35;1.27;;;;;;;15.23;49.20;98368.31;1790000;80;21486;-77
2021/05/26 06:42:22;;;;;;;4.37;1.30;;;;;;;15.40;48.01;98360.34;1790023;78;20864;-77
2021/05/26 06:44:48;;;;;;;3.70;1.60;;;;;;;15.54;48.90;98364.42;1763503;80;20978;-77
2021/05/26 06:47:14;;;;;;;3.90;1.47;;;;;;;15.66;48.33;98355.20;1789871;78;21063;-76
2021/05/26 06:49:40;;;;;;;3.22;1.07;;;;;;;15.82;47.26;98354.90;1790110;80;20943;-76
2021/05/26 06:52:07;;;;;;;2.40;1.32;;;;;;;15.80;43.67;98355.17;1763599;78;20888;-76
2021/05/26 06:54:33;;;;;;;2.47;1.35;;;;;;;15.78;44.80;98354.68;1789939;80;20959;-76
2021/05/26 06:57:00;;;;;;;7.10;1.75;;;;;;;15.89;45.71;98349.24;1790177;78;20943;-76
2021/05/26 06:59:27;;;;;;;2.67;1.20;;;;;;;16.03;41.62;98346.50;1789880;80;21784;-76
2021/05/26 07:01:53;;;;;;;1.98;1.00;;;;;;;16.02;43.64;98347.61;1789947;78;20904;-76
2021/05/26 07:04:19;;;;;;;3.80;2.33;;;;;;;16.29;41.90;98350.27;1790042;80;20888;-76
2021/05/26 07:06:44;;;;;;;2.77;1.10;;;;;;;16.36;41.82;98346.55;1790078;80;20856;-75
2021/05/26 07:09:11;;;;;;;4.03;1.82;;;;;;;16.47;41.24;98344.94;1790093;78;21557;-75
2021/05/26 07:11:36;;;;;;;8.78;2.12;;;;;;;16.89;41.05;98354.03;1790017;80;21415;-76
2021/05/26 07:14:03;;;;;;;6.83;2.17;;;;;;;16.93;40.05;98350.13;1789876;78;20907;-76
2021/05/26 07:16:29;;;;;;;5.22;1.57;;;;;;;17.00;41.18;98350.47;1789948;80;20947;-76
2021/05/26 07:18:59;;;;;;;3.80;1.40;;;;;;;17.18;41.14;98346.73;1789985;78;20872;-76
2021/05/26 07:21:22;;;;;;;4.95;1.60;;;;;;;17.40;40.73;98351.88;1789537;80;20976;-76
2021/05/26 07:23:48;;;;;;;2.92;1.30;;;;;;;17.44;40.31;98347.41;1790076;78;21489;-76
2021/05/26 07:26:14;;;;;;;4.20;1.57;;;;;;;17.48;37.19;98343.70;1789889;80;20848;-76
2021/05/26 07:28:41;;;;;;;2.85;1.82;;;;;;;17.90;40.38;98333.20;1789928;78;20895;-76
2021/05/26 07:31:07;;;;;;;2.50;0.98;;;;;;;18.82;37.33;98348.17;1789934;80;21418;-76
2021/05/26 07:33:33;;;;;;;8.03;1.42;;;;;;;18.96;36.31;98347.97;1790046;78;20983;-76
2021/05/26 07:35:59;;;;;;;4.15;1.52;;;;;;;19.52;36.77;98332.28;1788157;78;21201;-77
2021/05/26 07:38:25;;;;;;;5.35;1.47;;;;;;;20.05;35.84;98338.55;1786755;79;20852;-76
2021/05/26 07:40:51;;;;;;;3.47;1.20;;;;;;;20.38;34.98;98330.37;1786756;80;20999;-77
2021/05/26 07:43:19;;;;;;;3.62;1.22;;;;;;;20.74;34.25;98341.33;1786844;79;20863;-77
2021/05/26 07:45:45;;;;;;;3.55;1.10;;;;;;;21.22;30.48;98332.98;1786927;80;20968;-77
2021/05/26 07:48:11;;;;;;;2.35;1.27;;;;;;;21.35;29.98;98328.53;1786937;79;20969;-77
2021/05/26 07:50:37;;;;;;;2.08;1.17;;;;;;;20.87;31.23;98328.42;1756087;80;21458;-77
2021/05/26 07:53:03;;;;;;;4.90;1.87;;;;;;;20.91;29.74;98334.85;1786810;79;20927;-77
2021/05/26 07:55:29;;;;;;;5.03;1.70;;;;;;;20.67;32.29;98330.86;1731547;80;21082;-76
2021/05/26 07:57:55;;;;;;;3.55;0.88;;;;;;;21.48;31.51;98326.61;1786904;79;20931;-77
2021/05/26 08:00:21;;;;;;;2.45;0.98;;;;;;;21.86;29.08;98330.38;1786874;80;21228;-77
2021/05/26 08:02:48;;;;;;;3.62;1.10;;;;;;;21.72;30.60;98321.67;1786608;79;20879;-76
2021/05/26 08:05:15;;;;;;;3.10;1.65;;;;;;;22.22;30.19;98322.67;1786929;80;21007;-76
2021/05/26 08:07:42;;;;;;;4.60;1.67;;;;;;;;;;1787130;79;21517;-77
2021/05/26 08:10:08;;;;;;;5.83;1.60;;;;;;;21.68;31.59;98326.26;1786904;80;20947;-77
2021/05/26 08:12:34;;;;;;;1.85;1.05;;;;;;;21.72;30.04;98321.67;1786922;79;21079;-77
2021/05/26 08:15:00;;;;;;;2.17;1.12;;;;;;;21.65;31.70;98323.63;1786692;80;20951;-76
2021/05/26 08:17:26;;;;;;;21.15;2.22;;;;;;;22.07;31.38;98317.03;1786753;78;20982;-77
2021/05/26 08:19:52;;;;;;;6.87;1.35;;;;;;;22.30;29.62;98318.72;1786813;80;21523;-76
2021/05/26 08:22:18;;;;;;;3.20;1.55;;;;;;;22.15;27.38;98317.51;1786900;79;20864;-76
2021/05/26 08:24:44;;;;;;;3.27;1.22;;;;;;;22.43;26.79;98318.34;1786911;80;21132;-77
2021/05/26 08:27:10;;;;;;;4.03;2.37;;;;;;;22.65;27.16;98323.91;1786803;79;20928;-77
2021/05/26 08:29:36;;;;;;;8.25;3.58;;;;;;;22.87;26.84;98325.89;1786884;80;21030;-77
2021/05/26 08:32:02;;;;;;;2.35;1.10;;;;;;;23.23;26.57;98314.61;1786842;79;20852;-76
2021/05/26 08:34:28;;;;;;;2.77;2.30;;;;;;;22.93;26.50;98313.44;1786819;80;21483;-77
2021/05/26 08:36:57;;;;;;;2.02;0.95;;;;;;;22.94;24.86;98321.94;1789469;78;21253;-76
2021/05/26 08:39:23;;;;;;;2.15;0.82;;;;;;;22.62;25.93;98312.73;1790097;80;21490;-76
2021/05/26 08:41:52;;;;;;;3.65;2.72;;;;;;;22.71;25.37;98312.00;1790171;80;20884;-76
2021/05/26 08:44:18;;;;;;;4.20;2.40;;;;;;;22.75;24.59;98317.06;1790101;80;21003;-76
2021/05/26 08:46:44;;;;;;;7.62;1.87;;;;;;;22.43;24.18;98315.58;1763786;80;20895;-76
2021/05/26 08:49:10;;;;;;;5.00;1.70;;;;;;;22.61;22.56;98321.61;1789975;78;21824;-76
2021/05/26 08:51:36;;;;;;;1.37;0.80;;;;;;;22.02;23.66;98318.06;1789976;80;20971;-76
2021/05/26 08:54:02;;;;;;;2.55;1.00;;;;;;;22.41;24.20;98315.13;1790033;78;20868;-76
2021/05/26 08:56:28;;;;;;;2.58;1.12;;;;;;;22.79;23.70;98320.14;1790118;80;21402;-76
2021/05/26 08:58:55;;;;;;;3.20;1.60;;;;;;;22.86;24.63;98314.62;1790118;78;20895;-76
2021/05/26 09:01:21;;;;;;;1.98;0.85;;;;;;;23.05;24.64;98311.97;1790003;80;20986;-76
2021/05/26 09:03:52;;;;;;;3.30;1.50;;;;;;;22.98;22.51;98302.91;1790114;78;20800;-75
2021/05/26 09:06:18;;;;;;;5.37;2.10;;;;;;;22.87;22.88;98317.02;1790181;80;20864;-76
2021/05/26 09:08:52;;;;;;;3.65;0.88;;;;;;;22.93;24.26;98310.09;1790219;78;20922;-76
2021/05/26 09:11:36;;;;;;;4.17;1.55;;;;;;;23.60;23.15;98303.33;1790373;80;20932;-77
2021/05/26 09:14:12;;;;;;;4.60;1.10;;;;;;;23.97;23.28;98301.02;1764786;80;21026;-76
2021/05/26 09:16:38;;;;;;;2.40;0.80;;;;;;;23.36;24.12;98289.08;1789899;80;21394;-76
2021/05/26 09:19:06;;;;;;;3.30;1.25;;;;;;;22.84;24.52;98292.84;1790107;78;20930;-77
2021/05/26 09:21:44;;;;;;;2.10;0.80;;;;;;;22.55;24.76;98294.59;1790746;80;21494;-76
2021/05/26 09:24:23;;;;;;;;;;;;;;;23.08;25.23;98296.08;1792690;78;21577;-76
2021/05/26 09:26:52;;;;;;;3.35;0.90;;;;;;;23.73;24.62;98290.17;1790147;80;21110;-76
2021/05/26 09:29:29;;;;;;;3.70;1.15;;;;;;;23.66;24.54;98289.42;1790099;80;21022;-77
2021/05/26 09:32:22;;;;;;;3.77;1.30;;;;;;;23.13;25.43;98295.00;1790032;78;20983;-77
2021/05/26 09:34:56;;;;;;;6.05;1.37;;;;;;;22.87;25.55;98292.16;1790019;80;20912;-76
2021/05/26 09:37:27;;;;;;;4.05;1.45;;;;;;;23.56;24.73;98295.48;1790050;78;20939;-78
2021/05/26 09:40:03;;;;;;;2.40;1.40;;;;;;;23.52;24.45;98289.08;1764603;80;21617;-77
2021/05/26 09:42:42;;;;;;;4.30;0.88;;;;;;;23.20;25.96;98289.66;1790073;78;21022;-77
2021/05/26 09:45:20;;;;;;;4.78;0.90;;;;;;;23.16;25.29;98278.52;1790119;80;20965;-76
2021/05/26 09:47:55;;;;;;;2.62;0.80;;;;;;;23.63;23.92;98272.17;1790225;78;20987;-77
2021/05/26 09:50:34;;;;;;;4.60;1.20;;;;;;;23.78;23.87;98271.93;1790168;80;20939;-76
2021/05/26 09:53:13;;;;;;;5.47;1.60;;;;;;;24.40;23.57;98269.53;1790051;78;21899;-76
2021/05/26 09:55:44;;;;;;;3.27;1.00;;;;;;;25.39;22.63;98261.48;1765958;80;20994;-76
2021/05/26 09:58:14;;;;;;;4.70;1.40;;;;;;;25.96;20.35;98249.84;1763904;80;21499;-77
2021/05/26 10:00:42;;;;;;;3.35;1.95;;;;;;;26.14;20.49;98249.48;1790259;80;20962;-76
2021/05/26 10:03:08;;;;;;;4.40;1.20;;;;;;;27.01;19.95;98245.14;1790490;78;20867;-77
2021/05/26 10:05:34;;;;;;;2.65;0.93;;;;;;;27.29;20.11;98243.82;1790111;80;21073;-77
2021/05/26 10:08:04;;;;;;;5.10;3.30;;;;;;;27.94;19.00;98224.39;1790053;78;21007;-77
2021/05/26 10:10:31;;;;;;;7.15;1.30;;;;;;;27.94;18.54;98229.95;1764269;80;21446;-77
2021/05/26 10:13:04;;;;;;;4.55;2.15;;;;;;;27.53;18.32;98221.75;1764002;80;21407;-77
2021/05/26 10:15:32;;;;;;;3.30;1.02;;;;;;;26.38;18.21;98227.41;1790277;80;21043;-77
2021/05/26 10:18:01;;;;;;;;;;;;;;;27.01;19.86;98222.91;1792743;78;21132;-77
2021/05/26 10:20:31;;;;;;;5.25;2.30;;;;;;;27.35;19.33;98220.03;1790340;80;21485;-77
2021/05/26 10:22:58;;;;;;;2.08;1.10;;;;;;;27.09;19.73;98224.59;1790463;78;21336;-78
2021/05/26 10:25:24;;;;;;;2.27;1.00;;;;;;;27.32;17.32;98222.97;1790576;80;20948;-78
2021/05/26 10:27:58;;;;;;;3.47;2.00;;;;;;;28.35;16.69;98217.24;1790347;78;20994;-76
2021/05/26 10:30:27;;;;;;;4.45;1.07;;;;;;;28.36;17.54;98210.47;1790166;80;21064;-77
2021/05/26 10:33:01;;;;;;;3.70;1.25;;;;;;;28.87;17.37;98208.80;1764021;80;20991;-77
2021/05/26 10:35:31;;;;;;;3.87;1.62;;;;;;;29.12;17.15;98209.45;1764505;80;20995;-78
2021/05/26 10:38:06;;;;;;;4.15;1.62;;;;;;;29.80;16.74;98210.19;1790121;78;20883;-77
2021/05/26 10:40:42;;;;;;;5.12;3.58;;;;;;;29.57;16.06;98207.05;1790071;80;20981;-78
2021/05/26 10:43:22;;;;;;;4.20;1.40;;;;;;;28.27;17.62;98198.88;1790059;78;20982;-77
2021/05/26 10:45:50;;;;;;;3.08;1.30;;;;;;;27.87;17.15;98194.34;1789951;80;20999;-77
2021/05/26 10:48:44;;;;;;;6.92;1.72;;;;;;;28.54;16.90;98192.41;1790281;78;21392;-78
2021/05/26 10:51:13;;;;;;;2.30;1.50;;;;;;;29.03;17.28;98190.31;1790062;80;21491;-77
2021/05/26 10:53:43;;;;;;;4.03;1.12;;;;;;;29.83;16.13;98185.67;1789939;78;20977;-76
2021/05/26 10:56:36;;;;;;;2.80;1.20;;;;;;;31.08;14.71;98194.80;1790041;80;21544;-77
2021/05/26 10:59:13;;;;;;;3.45;1.30;;;;;;;31.91;13.99;98178.84;1789877;78;21471;-77
2021/05/26 11:02:09;;;;;;;3.65;0.80;;;;;;;32.96;13.92;98186.25;1790293;80;21074;-78
2021/05/26 11:04:37;;;;;;;3.55;1.27;;;;;;;32.76;13.43;98176.31;1790060;80;20940;-77
2021/05/26 11:07:24;;;;;;;4.53;1.85;;;;;;;33.25;13.81;98173.95;1763861;78;21442;-77
2021/05/26 11:10:04;;;;;;;2.25;1.02;;;;;;;33.79;13.76;98176.59;1790273;80;21014;-77
2021/05/26 11:12:59;;;;;;;2.85;1.67;;;;;;;34.53;12.11;98165.06;1790004;78;21462;-76
2021/05/26 11:15:42;;;;;;;4.22;1.72;;;;;;;33.98;12.77;98167.22;1790175;80;20963;-78
2021/05/26 11:18:17;;;;;;;2.98;1.65;;;;;;;34.29;12.21;98161.55;1790106;78;21359;-77
2021/05/26 11:20:42;;;;;;;2.50;1.35;;;;;;;34.11;12.18;98161.93;1790091;80;20999;-77
2021/05/26 11:23:12;;;;;;;3.80;1.17;;;;;;;34.72;10.57;98155.77;1790094;78;21838;-77
2021/05/26 11:25:38;;;;;;;2.80;1.00;;;;;;;34.71;11.32;98152.78;1789990;80;20967;-78
2021/05/26 11:28:05;;;;;;;2.75;1.85;;;;;;;34.57;10.52;98151.70;1790235;78;20955;-77
2021/05/26 11:30:31;;;;;;;4.20;1.77;;;;;;;34.06;11.60;98151.18;1790610;80;21042;-79
2021/05/26 11:32:58;;;;;;;2.42;1.20;;;;;;;34.07;11.55;98151.97;1790228;78;20875;-78
2021/05/26 11:35:24;;;;;;;2.35;1.07;;;;;;;34.85;10.36;98150.22;1790244;80;27112;-78
2021/05/26 11:37:50;;;;;;;4.53;1.27;;;;;;;34.46;10.43;98144.91;1787312;79;21514;-78
2021/05/26 11:40:25;;;;;;;23.60;21.80;;;;;;;33.62;11.40;98144.81;1787176;80;21030;-77
2021/05/26 11:42:53;;;;;;;4.03;2.35;;;;;;;34.06;12.41;98144.77;1787082;79;21009;-77